createdAt,value
2018-01-11T00:02:19.883Z,91.50
2018-01-11T00:04:47.319Z,91.60
2018-01-11T00:07:14.768Z,91.80
2018-01-11T00:09:42.195Z,92.00
2018-01-11T00:12:09.643Z,91.80
2018-01-11T00:14:37.075Z,91.70
2018-01-11T00:17:04.500Z,92.00
2018-01-11T00:19:32.696Z,91.90
2018-01-11T00:22:00.123Z,91.80
2018-01-11T00:24:27.556Z,92.00
2018-01-11T00:26:55.008Z,92.20
2018-01-11T00:29:22.447Z,92.10
2018-01-11T00:31:49.884Z,92.10
2018-01-11T00:34:17.321Z,92.50
2018-01-11T00:36:45.528Z,92.30
2018-01-11T00:39:12.951Z,92.30
2018-01-11T00:41:40.401Z,92.60
2018-01-11T00:44:07.815Z,92.60
2018-01-11T00:46:35.246Z,92.60
2018-01-11T00:49:03.440Z,92.80
2018-01-11T00:51:30.867Z,92.80
2018-01-11T00:53:58.296Z,93.10
2018-01-11T00:56:25.787Z,93.00
2018-01-11T00:58:53.230Z,92.90
2018-01-11T01:01:20.667Z,92.70
2018-01-11T01:03:48.115Z,92.70
2018-01-11T01:06:15.539Z,92.60
2018-01-11T01:08:42.979Z,92.40
2018-01-11T01:11:10.408Z,92.40
2018-01-11T01:13:37.844Z,92.30
2018-01-11T01:16:05.293Z,92.40
2018-01-11T01:18:32.720Z,92.50
2018-01-11T01:21:00.152Z,92.60
2018-01-11T01:23:28.355Z,92.50
2018-01-11T01:25:55.784Z,92.50
2018-01-11T01:28:23.249Z,92.50
2018-01-11T01:30:50.676Z,92.70
2018-01-11T01:33:18.119Z,92.70
2018-01-11T01:35:45.540Z,92.60
2018-01-11T01:38:12.972Z,92.50
2018-01-11T01:40:40.401Z,92.70
2018-01-11T01:43:08.593Z,92.60
2018-01-11T01:45:36.017Z,92.60
2018-01-11T01:48:03.446Z,92.40
2018-01-11T01:50:30.878Z,92.10
2018-01-11T01:52:59.081Z,92.70
2018-01-11T01:55:26.542Z,92.60
2018-01-11T01:57:53.960Z,92.50
2018-01-11T02:00:21.384Z,92.60
2018-01-11T02:02:48.805Z,93.20
2018-01-11T02:05:16.231Z,93.40
2018-01-11T03:25:24.612Z,93.90
2018-01-11T03:27:52.061Z,94.10
2018-01-11T03:30:19.488Z,94.20
2018-01-11T03:32:46.924Z,94.40
2018-01-11T03:35:14.343Z,94.10
2018-01-11T03:37:42.536Z,94.30
2018-01-11T03:40:09.963Z,94.30
2018-01-11T03:42:37.406Z,94.30
2018-01-11T03:45:04.835Z,94.50
2018-01-11T03:47:33.020Z,94.30
2018-01-11T03:50:00.479Z,94.30
2018-01-11T03:52:27.928Z,94.50
2018-01-11T03:54:55.360Z,94.80
2018-01-11T03:57:22.780Z,94.70
2018-01-11T03:59:50.207Z,94.50
2018-01-11T04:02:17.633Z,94.50
2018-01-11T04:04:45.823Z,94.70
2018-01-11T04:07:13.252Z,94.70
2018-01-11T04:09:40.691Z,94.60
2018-01-11T04:12:08.864Z,94.60
2018-01-11T04:14:36.296Z,94.50
2018-01-11T04:17:03.752Z,94.60
2018-01-11T04:19:31.181Z,94.50
2018-01-11T04:21:58.615Z,94.70
2018-01-11T04:24:26.036Z,95.20
2018-01-11T04:26:54.235Z,95.70
2018-01-11T04:29:21.675Z,95.70
2018-01-11T04:31:49.103Z,95.80
2018-01-11T04:34:16.543Z,95.60
2018-01-11T04:36:43.982Z,95.40
2018-01-11T04:39:11.423Z,95.20
2018-01-11T04:41:39.604Z,95.40
2018-01-11T04:44:07.024Z,95.40
2018-01-11T04:46:34.458Z,96.00
2018-01-11T04:49:02.672Z,96.80
2018-01-11T04:51:30.089Z,96.80
2018-01-11T04:53:57.524Z,96.80
2018-01-11T04:56:24.945Z,96.70
2018-01-11T04:58:52.379Z,96.00
2018-01-11T05:01:20.561Z,95.70
2018-01-11T05:03:47.996Z,95.60
2018-01-11T05:06:15.431Z,95.50
2018-01-11T05:08:42.875Z,95.50
2018-01-11T05:11:10.315Z,95.60
2018-01-11T05:13:37.748Z,95.60
2018-01-11T05:16:05.178Z,95.70
2018-01-11T05:18:33.368Z,95.50
2018-01-11T05:21:00.795Z,95.50
2018-01-11T05:23:28.231Z,95.60
2018-01-11T05:25:55.672Z,95.70
2018-01-11T05:28:23.873Z,96.00
2018-01-11T05:30:51.314Z,95.90
2018-01-11T05:33:18.767Z,96.00
2018-01-11T05:35:46.196Z,96.00
2018-01-11T05:38:13.648Z,96.00
2018-01-11T05:40:41.076Z,96.10
2018-01-11T05:43:08.500Z,96.10
2018-01-11T05:45:35.935Z,96.30
2018-01-11T05:48:03.353Z,97.20
2018-01-11T05:50:30.783Z,98.20
2018-01-11T05:52:58.217Z,98.10
2018-01-11T05:55:25.640Z,97.90
2018-01-11T05:57:53.076Z,96.40
2018-01-11T06:00:20.505Z,96.20
2018-01-11T06:02:47.939Z,96.00
2018-01-11T06:05:15.363Z,95.80
2018-01-11T06:07:42.792Z,95.40
2018-01-11T06:10:10.980Z,99.30
2018-01-11T06:12:38.424Z,99.30
2018-01-11T06:15:05.857Z,98.60
2018-01-11T06:17:33.312Z,96.90
2018-01-11T06:20:00.727Z,96.20
2018-01-11T06:22:28.152Z,95.80
2018-01-11T06:24:56.353Z,95.10
2018-01-11T06:27:23.782Z,95.10
2018-01-11T06:29:51.221Z,94.80
2018-01-11T06:32:18.648Z,95.00
2018-01-11T06:34:46.092Z,94.50
2018-01-11T06:37:13.592Z,94.60
2018-01-11T06:39:41.024Z,95.00
2018-01-11T06:42:08.463Z,94.60
2018-01-11T06:44:35.884Z,94.60
2018-01-11T06:47:03.324Z,96.00
2018-01-11T06:49:30.784Z,97.10
2018-01-11T06:51:58.228Z,95.60
2018-01-11T06:54:25.690Z,95.10
2018-01-11T06:56:53.113Z,94.90
2018-01-11T06:59:20.520Z,94.90
2018-01-11T07:01:47.970Z,94.90
2018-01-11T07:04:15.397Z,94.80
2018-01-11T07:06:42.831Z,96.90
2018-01-11T07:09:10.251Z,96.20
2018-01-11T07:11:38.436Z,95.30
2018-01-11T07:14:05.870Z,94.90
2018-01-11T07:16:33.301Z,94.90
2018-01-11T07:19:00.727Z,94.70
2018-01-11T07:21:28.156Z,94.90
2018-01-11T07:23:56.348Z,95.20
2018-01-11T07:26:23.771Z,95.20
2018-01-11T07:28:51.213Z,94.80
2018-01-11T07:31:18.684Z,94.70
2018-01-11T07:33:46.104Z,94.80
2018-01-11T07:36:13.574Z,94.70
2018-01-11T07:38:40.972Z,94.80
2018-01-11T07:41:08.408Z,94.90
2018-01-11T07:43:36.600Z,94.80
2018-01-11T07:46:04.024Z,94.80
2018-01-11T07:48:31.451Z,95.00
2018-01-11T07:50:58.893Z,95.20
2018-01-11T07:53:27.076Z,95.50
2018-01-11T07:55:54.516Z,95.40
2018-01-11T07:58:21.956Z,95.50
2018-01-11T08:00:49.384Z,95.50
2018-01-11T08:03:16.834Z,95.70
2018-01-11T08:05:44.256Z,95.30
2018-01-11T08:08:11.690Z,95.20
2018-01-11T08:10:39.877Z,95.30
2018-01-11T08:13:07.322Z,95.30
2018-01-11T08:15:34.740Z,95.30
2018-01-11T08:18:02.172Z,95.10
2018-01-11T08:20:30.360Z,95.10
2018-01-11T08:22:57.814Z,95.10
2018-01-11T08:25:25.260Z,95.10
2018-01-11T08:27:52.688Z,95.10
2018-01-11T08:30:20.132Z,95.20
2018-01-11T08:32:47.567Z,95.50
2018-01-11T08:35:14.996Z,95.40
2018-01-11T08:37:42.424Z,95.40
2018-01-11T08:40:10.640Z,95.50
2018-01-11T08:42:38.056Z,95.50
2018-01-11T08:45:05.488Z,95.40
2018-01-11T08:47:32.921Z,95.50
2018-01-11T08:50:00.749Z,95.60
2018-01-11T08:52:28.158Z,95.60
2018-01-11T08:54:55.584Z,95.50
2018-01-11T08:57:23.037Z,95.50
2018-01-11T08:59:50.460Z,95.50
2018-01-11T09:02:17.896Z,95.50
2018-01-11T09:04:45.328Z,95.40
2018-01-11T09:07:12.757Z,95.40
2018-01-11T09:09:40.948Z,95.20
2018-01-11T09:12:08.379Z,95.20
2018-01-11T09:14:35.837Z,95.30
2018-01-11T09:17:03.248Z,95.30
2018-01-11T09:19:31.501Z,95.70
2018-01-11T09:21:58.868Z,95.70
2018-01-11T09:24:26.312Z,95.40
2018-01-11T09:26:54.495Z,94.30
2018-01-11T09:29:21.921Z,94.20
2018-01-11T09:31:49.364Z,93.50
2018-01-11T09:34:16.795Z,94.70
2018-01-11T09:36:44.222Z,93.50
2018-01-11T09:39:12.418Z,93.00
2018-01-11T09:41:39.841Z,92.90
2018-01-11T09:44:07.283Z,92.50
2018-01-11T09:46:34.712Z,92.40
2018-01-11T09:49:02.205Z,92.40
2018-01-11T09:51:29.624Z,92.70
2018-01-11T09:53:57.066Z,93.10
2018-01-11T09:56:24.491Z,92.50
2018-01-11T09:58:51.919Z,91.80
2018-01-11T10:01:20.123Z,91.90
2018-01-11T10:03:47.574Z,91.90
2018-01-11T10:06:14.997Z,92.70
2018-01-11T10:08:42.412Z,92.70
2018-01-11T10:11:09.832Z,93.20
2018-01-11T10:13:38.064Z,92.50
2018-01-11T10:16:06.255Z,92.00
2018-01-11T10:18:33.672Z,92.00
2018-01-11T10:21:01.115Z,90.90
2018-01-11T10:23:28.539Z,90.70
2018-01-11T10:25:55.975Z,90.40
2018-01-11T10:28:23.398Z,90.50
2018-01-11T10:30:50.825Z,90.20
2018-01-11T10:33:18.343Z,90.40
2018-01-11T10:35:45.796Z,90.40
2018-01-11T10:38:13.244Z,90.60
2018-01-11T10:40:40.668Z,90.70
2018-01-11T10:43:08.105Z,90.80
2018-01-11T10:45:35.528Z,90.30
2018-01-11T10:48:02.967Z,90.00
2018-01-11T10:50:30.391Z,90.10
2018-01-11T10:52:58.588Z,90.20
2018-01-11T10:55:26.004Z,90.20
2018-01-11T10:57:53.436Z,88.90
2018-01-11T11:00:21.631Z,87.50
2018-01-11T11:02:49.826Z,87.40
2018-01-11T11:05:17.245Z,87.30
2018-01-11T11:07:44.668Z,86.10
2018-01-11T11:10:12.102Z,85.60
2018-01-11T11:12:39.531Z,82.00
2018-01-11T11:15:06.968Z,78.80
2018-01-11T11:17:35.896Z,80.10
2018-01-11T11:20:03.343Z,80.10
2018-01-11T11:22:30.751Z,76.80
2018-01-11T11:24:58.976Z,72.40
2018-01-11T11:27:26.375Z,72.30
2018-01-11T11:29:53.830Z,70.00
2018-01-11T11:32:21.236Z,67.60
2018-01-11T11:34:49.445Z,73.30
2018-01-11T11:37:16.871Z,73.20
2018-01-11T11:39:44.297Z,72.30
2018-01-11T11:42:11.725Z,72.40
2018-01-11T11:44:39.920Z,65.10
2018-01-11T11:47:07.348Z,65.10
2018-01-11T11:49:34.815Z,62.30
2018-01-11T11:52:02.253Z,60.60
2018-01-11T11:54:29.680Z,60.00
2018-01-11T11:56:57.116Z,61.80
2018-01-11T11:59:24.604Z,64.00
2018-01-11T12:01:52.025Z,60.00
2018-01-11T12:04:19.464Z,59.20
2018-01-11T12:06:46.879Z,59.60
2018-01-11T12:09:14.325Z,59.70
2018-01-11T12:11:41.773Z,59.20
2018-01-11T12:14:09.204Z,57.70
2018-01-11T12:16:36.650Z,59.20
2018-01-11T12:19:04.084Z,60.70
2018-01-11T12:21:31.512Z,65.20
2018-01-11T12:23:59.792Z,59.60
2018-01-11T12:26:27.238Z,59.50
2018-01-11T12:28:54.659Z,57.90
2018-01-11T12:31:22.101Z,56.20
2018-01-11T12:33:49.530Z,54.60
2018-01-11T12:36:17.731Z,54.80
2018-01-11T12:38:45.153Z,54.20
2018-01-11T12:41:12.587Z,53.40
2018-01-11T12:43:40.012Z,53.60
2018-01-11T12:46:08.212Z,55.30
2018-01-11T12:48:35.647Z,54.80
2018-01-11T12:51:03.114Z,54.70
2018-01-11T12:53:30.532Z,53.20
2018-01-11T12:55:57.947Z,54.80
2018-01-11T12:58:25.398Z,55.90
2018-01-11T13:00:52.828Z,54.00
2018-01-11T13:03:21.040Z,53.60
2018-01-11T13:05:48.475Z,53.60
2018-01-11T13:08:15.912Z,54.10
2018-01-11T13:10:43.337Z,56.30
2018-01-11T13:13:10.761Z,58.00
2018-01-11T13:15:38.191Z,58.70
2018-01-11T13:18:06.411Z,53.60
2018-01-11T13:20:33.831Z,53.60
2018-01-11T13:23:01.283Z,52.70
2018-01-11T13:25:28.672Z,51.30
2018-01-11T13:27:56.888Z,54.20
2018-01-11T13:30:24.301Z,54.20
2018-01-11T13:32:51.736Z,55.10
2018-01-11T13:35:19.164Z,54.90
2018-01-11T13:37:46.585Z,54.70
2018-01-11T13:40:14.789Z,54.50
2018-01-11T13:42:42.208Z,54.50
2018-01-11T13:45:09.632Z,54.30
2018-01-11T13:47:37.852Z,56.00
2018-01-11T13:50:05.292Z,56.00
2018-01-11T13:52:32.723Z,56.90
2018-01-11T13:55:00.163Z,57.10
2018-01-11T13:57:27.596Z,56.40
2018-01-11T13:59:55.015Z,55.60
2018-01-11T14:02:22.460Z,55.70
2018-01-11T14:04:50.640Z,54.90
2018-01-11T14:07:18.068Z,54.90
2018-01-11T14:09:45.518Z,55.20
2018-01-11T14:12:12.952Z,55.00
2018-01-11T14:14:41.148Z,55.90
2018-01-11T14:17:08.632Z,55.90
2018-01-11T14:19:36.060Z,55.50
2018-01-11T14:22:03.516Z,55.50
2018-01-11T14:24:30.931Z,55.70
2018-01-11T14:26:58.348Z,55.70
2018-01-11T14:29:25.828Z,57.00
2018-01-11T14:31:53.252Z,57.30
2018-01-11T14:34:20.680Z,57.00
2018-01-11T14:36:48.112Z,57.60
2018-01-11T14:39:15.556Z,57.80
2018-01-11T14:41:43.004Z,59.00
2018-01-11T14:44:10.419Z,60.80
2018-01-11T14:46:37.900Z,62.00
2018-01-11T14:49:05.349Z,65.60
2018-01-11T14:51:32.805Z,66.70
2018-01-11T14:54:01.728Z,68.10
2018-01-11T14:56:29.156Z,68.00
2018-01-11T14:58:57.351Z,69.90
2018-01-11T15:01:24.806Z,69.90
2018-01-11T15:03:52.195Z,70.80
2018-01-11T15:06:20.392Z,71.10
2018-01-11T15:08:47.803Z,71.10
2018-01-11T15:11:15.234Z,71.90
2018-01-11T15:13:42.659Z,72.90
2018-01-11T15:16:10.097Z,73.50
2018-01-11T15:18:37.507Z,74.10
2018-01-11T15:21:04.932Z,74.90
2018-01-11T15:23:32.352Z,75.70
2018-01-11T15:26:00.617Z,77.00
2018-01-11T15:28:27.983Z,76.90
2018-01-11T15:30:55.409Z,77.00
2018-01-11T15:33:23.596Z,77.90
2018-01-11T15:35:51.020Z,77.90
2018-01-11T15:38:18.449Z,78.60
2018-01-11T15:40:46.652Z,79.50
2018-01-11T15:43:14.081Z,79.50
2018-01-11T15:45:41.540Z,80.30
2018-01-11T15:48:08.936Z,80.50
2018-01-11T15:50:36.365Z,80.90
2018-01-11T15:53:04.569Z,82.00
2018-01-11T15:55:32.003Z,81.90
2018-01-11T15:57:59.432Z,82.60
2018-01-11T16:00:26.886Z,83.00
2018-01-11T16:02:54.365Z,83.50
2018-01-11T16:05:21.793Z,83.50
2018-01-11T16:07:49.224Z,83.60
2018-01-11T16:10:16.661Z,83.80
2018-01-11T16:12:44.080Z,84.10
2018-01-11T16:15:11.536Z,84.20
2018-01-11T16:17:39.773Z,84.60
2018-01-11T16:20:07.198Z,84.50
2018-01-11T16:22:34.620Z,84.60
2018-01-11T16:25:02.068Z,84.80
2018-01-11T16:27:29.489Z,84.40
2018-01-11T16:29:56.912Z,84.40
2018-01-11T16:32:24.357Z,84.60
2018-01-11T16:34:51.791Z,84.60
2018-01-11T16:37:20.028Z,84.80
2018-01-11T16:39:47.463Z,84.70
2018-01-11T16:42:14.901Z,85.00
2018-01-11T16:44:42.294Z,85.20
2018-01-11T16:47:09.771Z,85.30
2018-01-11T16:49:37.178Z,85.60
2018-01-11T16:52:04.616Z,85.80
2018-01-11T16:54:32.037Z,86.00
2018-01-11T16:57:00.248Z,86.70
2018-01-11T16:59:27.720Z,86.60
2018-01-11T17:01:55.152Z,87.50
2018-01-11T17:04:22.564Z,86.80
2018-01-11T17:06:50.004Z,86.60
2018-01-11T17:09:17.441Z,86.30
2018-01-11T17:11:44.896Z,86.40
2018-01-11T17:14:12.332Z,86.70
2018-01-11T17:16:39.768Z,87.00
2018-01-11T17:19:07.214Z,87.40
2018-01-11T17:21:34.643Z,87.30
2018-01-11T17:24:02.112Z,87.40
2018-01-11T17:26:29.543Z,87.80
2018-01-11T17:28:56.968Z,88.10
2018-01-11T17:31:24.407Z,87.50
2018-01-11T17:33:51.823Z,86.60
2018-01-11T17:36:19.253Z,86.90
2018-01-11T17:38:47.452Z,87.30
2018-01-11T17:41:14.896Z,87.10
2018-01-11T17:43:42.344Z,87.60
2018-01-11T17:46:09.804Z,87.90
2018-01-11T17:48:37.229Z,88.10
2018-01-11T17:51:04.652Z,88.20
2018-01-11T17:53:32.149Z,88.60
2018-01-11T17:55:59.582Z,89.10
2018-01-11T17:58:27.016Z,89.00
2018-01-11T18:00:54.464Z,89.40
2018-01-11T18:03:21.888Z,89.40
2018-01-11T18:05:49.310Z,89.20
2018-01-11T18:08:16.747Z,89.60
2018-01-11T18:10:44.172Z,89.80
2018-01-11T18:13:12.381Z,89.70
2018-01-11T18:15:39.792Z,89.70
2018-01-11T18:18:07.992Z,89.30
2018-01-11T18:20:35.431Z,89.20
2018-01-11T18:23:03.630Z,88.70
2018-01-11T18:25:31.143Z,88.70
2018-01-11T18:27:58.575Z,88.70
2018-01-11T18:30:26.013Z,88.70
2018-01-11T18:32:53.458Z,87.60
2018-01-11T18:35:20.901Z,88.40
2018-01-11T18:37:48.316Z,87.90
2018-01-11T18:40:15.764Z,88.60
2018-01-11T18:42:43.182Z,88.70
2018-01-11T18:45:11.388Z,88.60
2018-01-11T18:47:38.815Z,88.60
2018-01-11T18:50:06.255Z,89.20
2018-01-11T18:52:33.686Z,88.70
2018-01-11T18:55:01.142Z,88.30
2018-01-11T18:57:28.575Z,88.20
2018-01-11T18:59:56.056Z,88.50
2018-01-11T19:02:23.488Z,87.70
2018-01-11T19:04:50.948Z,87.60
2018-01-11T19:07:18.375Z,87.10
2018-01-11T19:09:45.828Z,87.10
2018-01-11T19:12:13.257Z,86.70
2018-01-11T19:14:40.696Z,86.60
2018-01-11T19:17:08.131Z,86.50
2018-01-11T19:19:35.558Z,86.80
2018-01-11T19:22:03.761Z,86.90
2018-01-11T19:24:31.283Z,87.00
2018-01-11T19:26:58.724Z,87.50
2018-01-11T19:29:26.179Z,87.40
2018-01-11T19:31:53.591Z,87.60
2018-01-11T19:34:21.786Z,88.00
2018-01-11T19:36:49.220Z,88.00
2018-01-11T19:39:16.640Z,87.80
2018-01-11T19:41:44.071Z,87.50
2018-01-11T19:44:12.267Z,88.50
2018-01-11T19:46:39.692Z,88.40
2018-01-11T19:49:07.124Z,88.90
2018-01-11T19:51:34.584Z,87.20
2018-01-11T19:54:02.078Z,87.20
2018-01-11T19:56:29.494Z,87.50
2018-01-11T19:58:56.936Z,87.90
2018-01-11T20:01:24.410Z,87.60
2018-01-11T20:03:51.828Z,87.20
2018-01-11T20:06:19.288Z,86.40
2018-01-11T20:08:46.762Z,86.30
2018-01-11T20:11:14.956Z,86.00
2018-01-11T20:13:42.397Z,86.00
2018-01-11T20:16:09.866Z,86.50
2018-01-11T20:18:37.295Z,86.30
2018-01-11T20:21:04.752Z,86.50
2018-01-11T20:23:32.186Z,87.40
2018-01-11T20:25:59.614Z,87.90
2018-01-11T20:28:27.052Z,87.60
2018-01-11T20:30:54.519Z,87.70
2018-01-11T20:33:21.994Z,88.40
2018-01-11T20:35:50.184Z,89.60
2018-01-11T20:38:17.611Z,89.50
2018-01-11T20:40:45.095Z,88.90
2018-01-11T20:43:12.560Z,88.40
2018-01-11T20:45:39.968Z,88.70
2018-01-11T20:48:07.412Z,88.40
2018-01-11T20:50:34.883Z,88.20
2018-01-11T20:53:02.354Z,88.20
2018-01-11T20:55:29.776Z,87.30
2018-01-11T20:57:57.972Z,87.50
2018-01-11T21:00:25.406Z,87.50
2018-01-11T21:02:52.868Z,87.60
2018-01-11T21:05:20.316Z,87.50
2018-01-11T21:07:47.757Z,88.00
2018-01-11T21:10:15.225Z,87.10
2018-01-11T21:12:42.687Z,87.40
2018-01-11T21:15:10.876Z,87.70
2018-01-11T21:17:38.308Z,87.70
2018-01-11T21:20:05.809Z,87.10
2018-01-11T21:22:33.228Z,87.40
2018-01-11T21:25:00.660Z,88.20
2018-01-11T21:27:28.072Z,87.20
2018-01-11T21:29:55.513Z,88.30
2018-01-11T21:32:22.983Z,88.40
2018-01-11T21:34:50.444Z,88.40
2018-01-11T21:37:17.880Z,88.30
2018-01-11T21:39:45.324Z,88.10
2018-01-11T21:42:12.763Z,87.90
2018-01-11T21:44:40.224Z,87.90
2018-01-11T21:47:07.640Z,88.00
2018-01-11T21:49:35.120Z,88.00
2018-01-11T21:52:02.533Z,88.00
2018-01-11T21:54:29.973Z,87.40
2018-01-11T21:56:57.403Z,87.40
2018-01-11T21:59:24.836Z,87.20
2018-01-11T22:01:52.312Z,87.10
2018-01-11T22:04:19.736Z,87.10
2018-01-11T22:06:47.196Z,87.10
2018-01-11T22:09:14.616Z,86.60
2018-01-11T22:11:42.044Z,86.50
2018-01-11T22:14:09.476Z,86.70
2018-01-11T22:16:36.923Z,86.30
2018-01-11T22:19:04.340Z,86.30
2018-01-11T22:21:31.832Z,86.40
2018-01-11T22:23:59.256Z,86.60
2018-01-11T22:26:26.710Z,86.00
2018-01-11T22:28:54.139Z,86.30
2018-01-11T22:31:21.588Z,86.50
2018-01-11T22:33:49.024Z,86.30
2018-01-11T22:36:16.452Z,87.10
2018-01-11T22:38:43.884Z,87.00
2018-01-11T22:41:11.326Z,87.50
2018-01-11T22:43:38.751Z,87.60
2018-01-11T22:46:06.952Z,87.50
2018-01-11T22:48:34.367Z,87.50
2018-01-11T22:51:01.801Z,87.30
2018-01-11T22:53:29.224Z,87.60
2018-01-11T22:55:57.431Z,88.70
2018-01-11T22:58:24.875Z,88.70
2018-01-11T23:00:52.300Z,88.80
2018-01-11T23:03:19.740Z,89.00
2018-01-11T23:05:47.179Z,89.20
2018-01-11T23:08:14.620Z,90.00
2018-01-11T23:10:42.044Z,89.80
2018-01-11T23:13:09.479Z,89.00
2018-01-11T23:15:37.680Z,88.70
2018-01-11T23:18:05.141Z,88.80
2018-01-11T23:20:32.571Z,88.60
2018-01-11T23:22:59.999Z,89.30
2018-01-11T23:25:27.433Z,89.70
2018-01-11T23:27:54.865Z,89.40
2018-01-11T23:30:22.292Z,88.90
2018-01-11T23:32:49.733Z,88.90
2018-01-11T23:35:17.939Z,88.40
2018-01-11T23:37:45.370Z,88.30
2018-01-11T23:40:12.812Z,88.20
2018-01-11T23:42:40.243Z,88.30
2018-01-11T23:45:07.708Z,87.90
2018-01-11T23:47:35.127Z,88.20
2018-01-11T23:50:03.402Z,88.20
2018-01-11T23:52:30.808Z,88.50
2018-01-11T23:54:58.240Z,88.70
2018-01-11T23:57:26.428Z,89.00
2018-01-11T23:59:53.859Z,89.00
